createdAt,value
2023-05-03T00:02:23.040Z,77.21
2023-05-03T00:04:53.613Z,77.71
2023-05-03T00:07:22.996Z,78.26
2023-05-03T00:09:50.012Z,79.16
2023-05-03T00:12:16.698Z,78.40
2023-05-03T00:14:43.300Z,78.62
2023-05-03T00:17:10.093Z,78.86
2023-05-03T00:19:37.583Z,79.34
2023-05-03T00:22:04.360Z,79.25
2023-05-03T00:24:31.317Z,79.22
2023-05-03T00:26:57.928Z,79.16
2023-05-03T00:29:24.540Z,78.66
2023-05-03T00:31:51.245Z,79.89
2023-05-03T00:34:18.000Z,79.78
2023-05-03T00:36:44.610Z,79.93
2023-05-03T00:39:11.602Z,80.01
2023-05-03T00:41:39.281Z,80.38
2023-05-03T00:44:08.720Z,80.60
2023-05-03T00:46:35.482Z,80.88
2023-05-03T00:49:02.386Z,80.61
2023-05-03T00:51:29.202Z,80.85
2023-05-03T00:53:56.634Z,81.07
2023-05-03T00:56:23.907Z,80.99
2023-05-03T00:58:53.827Z,80.81
2023-05-03T01:01:20.742Z,80.69
2023-05-03T01:03:48.223Z,81.25
2023-05-03T01:06:37.991Z,81.01
2023-05-03T01:09:27.572Z,82.05
2023-05-03T01:12:12.687Z,81.90
2023-05-03T01:15:07.655Z,82.14
2023-05-03T01:17:39.362Z,82.15
2023-05-03T01:20:10.877Z,82.72
2023-05-03T01:22:48.224Z,82.87
2023-05-03T01:25:16.253Z,82.70
2023-05-03T01:27:43.424Z,83.36
2023-05-03T01:30:12.375Z,82.13
2023-05-03T01:33:06.008Z,82.91
2023-05-03T01:35:50.880Z,83.04
2023-05-03T01:38:18.634Z,82.67
2023-05-03T01:40:49.884Z,82.92
2023-05-03T01:43:18.363Z,82.86
2023-05-03T01:45:45.704Z,82.98
2023-05-03T01:48:15.014Z,82.87
2023-05-03T01:50:41.649Z,83.29
2023-05-03T01:53:08.432Z,83.43
2023-05-03T01:55:35.082Z,83.11
2023-05-03T01:58:01.723Z,83.59
2023-05-03T02:00:28.432Z,83.67
2023-05-03T02:02:55.282Z,83.56
2023-05-03T02:05:22.197Z,84.02
2023-05-03T02:07:48.880Z,83.11
2023-05-03T02:10:16.379Z,83.61
2023-05-03T02:12:46.149Z,83.69
2023-05-03T02:15:14.047Z,83.15
2023-05-03T02:17:42.631Z,83.02
2023-05-03T02:20:12.712Z,84.13
2023-05-03T02:22:39.515Z,84.00
2023-05-03T02:25:07.223Z,84.06
2023-05-03T02:27:33.922Z,83.73
2023-05-03T02:30:01.386Z,83.73
2023-05-03T02:32:28.578Z,83.41
2023-05-03T02:34:55.715Z,83.32
2023-05-03T02:37:22.402Z,83.41
2023-05-03T02:39:49.151Z,84.05
2023-05-03T02:42:16.290Z,84.64
2023-05-03T02:44:43.013Z,84.73
2023-05-03T02:47:10.534Z,84.87
2023-05-03T02:49:37.247Z,84.55
2023-05-03T02:52:03.878Z,85.07
2023-05-03T02:54:30.555Z,84.76
2023-05-03T02:56:57.153Z,85.26
2023-05-03T02:59:23.854Z,85.09
2023-05-03T03:01:50.689Z,85.27
2023-05-03T03:04:17.372Z,85.61
2023-05-03T03:06:44.056Z,86.07
2023-05-03T03:09:12.610Z,86.05
2023-05-03T03:11:39.340Z,86.09
2023-05-03T03:14:06.174Z,85.63
2023-05-03T03:16:32.980Z,86.14
2023-05-03T03:18:59.737Z,86.43
2023-05-03T03:21:26.837Z,86.34
2023-05-03T03:23:53.435Z,85.78
2023-05-03T03:26:20.180Z,85.29
2023-05-03T03:28:46.816Z,85.85
2023-05-03T03:31:13.598Z,85.36
2023-05-03T03:33:40.345Z,85.10
2023-05-03T03:36:07.988Z,84.72
2023-05-03T03:38:34.645Z,84.63
2023-05-03T03:41:01.533Z,84.39
2023-05-03T03:43:28.372Z,85.03
2023-05-03T03:45:55.082Z,85.12
2023-05-03T03:48:21.707Z,85.10
2023-05-03T03:50:48.409Z,85.39
2023-05-03T03:53:15.135Z,85.60
2023-05-03T03:55:41.944Z,86.45
2023-05-03T03:58:08.923Z,85.77
2023-05-03T04:00:38.862Z,86.05
2023-05-03T04:03:07.897Z,86.91
2023-05-03T04:05:34.953Z,87.04
2023-05-03T04:08:01.617Z,87.34
2023-05-03T04:10:28.276Z,87.24
2023-05-03T04:12:55.711Z,86.87
2023-05-03T04:15:22.357Z,87.48
2023-05-03T04:17:49.694Z,87.70
2023-05-03T04:20:17.782Z,88.55
2023-05-03T04:22:44.423Z,88.38
2023-05-03T04:25:19.928Z,88.08
2023-05-03T04:27:47.511Z,88.28
2023-05-03T04:30:15.091Z,88.87
2023-05-03T04:32:42.861Z,89.94
2023-05-03T04:35:12.500Z,89.50
2023-05-03T04:37:40.605Z,89.58
2023-05-03T04:40:09.684Z,89.87
2023-05-03T04:42:36.555Z,89.78
2023-05-03T04:45:04.242Z,89.93
2023-05-03T04:47:31.135Z,90.25
2023-05-03T04:49:57.792Z,90.21
2023-05-03T04:52:25.520Z,89.51
2023-05-03T04:54:52.500Z,91.01
2023-05-03T04:57:19.133Z,91.09
2023-05-03T04:59:46.128Z,90.71
2023-05-03T05:02:12.800Z,90.45
2023-05-03T05:04:39.624Z,91.46
2023-05-03T05:07:06.287Z,91.56
2023-05-03T05:09:32.965Z,91.09
2023-05-03T05:11:59.742Z,90.62
2023-05-03T05:14:28.453Z,91.29
2023-05-03T05:16:55.113Z,90.72
2023-05-03T05:19:21.801Z,90.12
2023-05-03T05:21:48.524Z,89.25
2023-05-03T05:24:15.116Z,88.73
2023-05-03T05:26:42.363Z,89.13
2023-05-03T05:29:09.117Z,89.35
2023-05-03T05:31:36.751Z,88.77
2023-05-03T05:34:03.821Z,88.41
2023-05-03T05:36:31.021Z,89.24
2023-05-03T05:38:57.642Z,89.00
2023-05-03T05:41:24.317Z,88.35
2023-05-03T05:43:51.041Z,88.49
2023-05-03T05:46:17.823Z,88.60
2023-05-03T05:48:44.522Z,88.22
2023-05-03T05:51:11.151Z,88.27
2023-05-03T05:53:37.873Z,88.30
2023-05-03T05:56:06.227Z,88.38
2023-05-03T05:58:32.868Z,87.75
2023-05-03T06:01:03.835Z,87.51
2023-05-03T06:03:31.875Z,87.51
2023-05-03T06:05:58.775Z,88.32
2023-05-03T06:08:25.980Z,87.40
2023-05-03T06:10:53.288Z,87.12
2023-05-03T06:13:20.013Z,87.11
2023-05-03T06:15:46.826Z,85.87
2023-05-03T06:18:13.545Z,85.24
2023-05-03T06:20:40.357Z,84.27
2023-05-03T06:23:07.033Z,82.92
2023-05-03T06:25:34.318Z,82.35
2023-05-03T06:28:01.205Z,81.57
2023-05-03T06:30:28.659Z,81.82
2023-05-03T06:32:55.537Z,82.15
2023-05-03T06:35:22.303Z,82.41
2023-05-03T06:37:49.606Z,81.36
2023-05-03T06:40:16.402Z,81.16
2023-05-03T06:42:42.976Z,80.69
2023-05-03T06:45:10.110Z,80.11
2023-05-03T06:47:37.300Z,79.07
2023-05-03T06:50:05.227Z,76.04
2023-05-03T06:52:32.036Z,77.76
2023-05-03T06:54:58.704Z,72.69
2023-05-03T06:57:27.485Z,72.41
2023-05-03T06:59:55.383Z,69.28
2023-05-03T07:02:22.835Z,66.28
2023-05-03T07:04:49.700Z,64.29
2023-05-03T07:07:16.653Z,65.04
2023-05-03T07:09:44.013Z,61.80
2023-05-03T07:12:11.405Z,64.07
2023-05-03T07:14:39.801Z,66.22
2023-05-03T07:17:06.640Z,62.56
2023-05-03T07:19:33.352Z,62.73
2023-05-03T07:21:59.993Z,58.65
2023-05-03T07:24:26.563Z,58.46
2023-05-03T07:26:53.818Z,58.12
2023-05-03T07:29:21.098Z,57.88
2023-05-03T07:31:47.904Z,58.02
2023-05-03T07:34:14.934Z,57.73
2023-05-03T07:36:41.746Z,56.70
2023-05-03T07:39:08.673Z,57.78
2023-05-03T07:41:35.531Z,55.28
2023-05-03T07:44:02.245Z,56.96
2023-05-03T07:46:29.001Z,55.09
2023-05-03T07:48:55.635Z,53.28
2023-05-03T07:51:22.289Z,54.11
2023-05-03T07:53:48.892Z,52.75
2023-05-03T07:56:15.706Z,52.53
2023-05-03T07:58:43.663Z,54.72
2023-05-03T08:01:11.607Z,52.18
2023-05-03T08:03:38.709Z,52.63
2023-05-03T08:06:05.962Z,51.65
2023-05-03T08:08:33.988Z,52.79
2023-05-03T08:11:00.629Z,52.95
2023-05-03T08:13:27.353Z,53.69
2023-05-03T08:15:54.039Z,51.43
2023-05-03T08:18:23.552Z,52.56
2023-05-03T08:20:50.782Z,51.25
2023-05-03T08:23:17.933Z,51.48
2023-05-03T08:25:45.449Z,51.78
2023-05-03T08:28:12.142Z,50.74
2023-05-03T08:30:38.888Z,51.64
2023-05-03T08:33:05.819Z,49.94
2023-05-03T08:35:32.509Z,50.78
2023-05-03T08:37:59.149Z,50.22
2023-05-03T08:40:28.193Z,50.49
2023-05-03T08:42:58.889Z,52.18
2023-05-03T08:45:25.697Z,52.00
2023-05-03T08:47:55.464Z,52.15
2023-05-03T08:50:23.302Z,53.29
2023-05-03T08:52:50.752Z,53.45
2023-05-03T08:55:17.560Z,52.21
2023-05-03T08:57:44.160Z,52.46
2023-05-03T09:00:12.871Z,52.61
2023-05-03T09:02:40.445Z,52.95
2023-05-03T09:05:16.249Z,52.95
2023-05-03T09:08:06.135Z,53.01
2023-05-03T09:10:34.282Z,52.50
2023-05-03T09:13:02.611Z,54.70
2023-05-03T09:15:30.654Z,52.14
2023-05-03T09:18:27.145Z,52.50
2023-05-03T09:20:54.160Z,52.21
2023-05-03T09:23:26.703Z,52.86
2023-05-03T09:25:53.551Z,53.97
2023-05-03T09:28:21.140Z,53.24
2023-05-03T09:30:49.525Z,52.50
2023-05-03T09:33:25.229Z,53.65
2023-05-03T09:36:03.480Z,51.60
2023-05-03T09:38:32.667Z,51.53
2023-05-03T09:40:59.921Z,51.67
2023-05-03T09:43:26.820Z,53.09
2023-05-03T09:46:07.186Z,52.76
2023-05-03T09:48:33.910Z,52.25
2023-05-03T09:51:00.880Z,53.25
2023-05-03T09:53:28.236Z,51.88
2023-05-03T09:55:56.148Z,51.92
2023-05-03T09:58:24.369Z,50.15
2023-05-03T10:00:52.623Z,49.82
2023-05-03T10:03:28.329Z,50.23
2023-05-03T10:05:56.018Z,50.46
2023-05-03T10:08:35.167Z,49.44
2023-05-03T10:11:04.156Z,50.14
2023-05-03T10:13:31.958Z,48.55
2023-05-03T10:16:11.515Z,49.18
2023-05-03T10:18:48.145Z,49.09
2023-05-03T10:21:21.875Z,48.82
2023-05-03T10:24:10.163Z,48.11
2023-05-03T10:26:36.815Z,46.90
2023-05-03T10:29:04.214Z,48.05
2023-05-03T10:31:48.043Z,49.45
2023-05-03T10:34:25.551Z,47.10
2023-05-03T10:36:53.375Z,49.71
2023-05-03T10:39:21.100Z,48.21
2023-05-03T10:42:03.608Z,49.09
2023-05-03T10:44:49.076Z,47.07
2023-05-03T10:47:24.965Z,46.79
2023-05-03T10:50:16.582Z,46.78
2023-05-03T10:52:43.252Z,46.28
2023-05-03T10:55:15.823Z,46.46
2023-05-03T10:57:44.094Z,46.51
2023-05-03T11:00:23.545Z,46.49
2023-05-03T11:03:09.881Z,45.32
2023-05-03T11:05:37.684Z,46.03
2023-05-03T11:08:11.157Z,44.61
2023-05-03T11:10:37.898Z,46.41
2023-05-03T11:13:04.623Z,42.80
2023-05-03T11:15:31.472Z,43.86
2023-05-03T11:17:58.212Z,44.35
2023-05-03T11:20:24.956Z,43.05
2023-05-03T11:22:52.388Z,43.45
2023-05-03T11:25:19.823Z,45.71
2023-05-03T11:27:49.476Z,41.21
2023-05-03T11:30:16.316Z,41.41
2023-05-03T11:32:43.337Z,40.25
2023-05-03T11:35:12.324Z,41.68
2023-05-03T11:37:38.954Z,40.78
2023-05-03T11:40:30.399Z,41.66
2023-05-03T11:43:00.883Z,41.88
2023-05-03T11:45:38.378Z,41.00
2023-05-03T11:48:05.311Z,42.56
2023-05-03T11:50:57.674Z,38.10
2023-05-03T11:53:26.392Z,41.28
2023-05-03T11:55:54.628Z,42.69
2023-05-03T11:58:26.610Z,35.49
2023-05-03T12:00:55.978Z,35.79
2023-05-03T12:03:28.551Z,37.94
2023-05-03T12:05:58.410Z,36.39
2023-05-03T12:08:35.536Z,36.07
2023-05-03T12:11:06.444Z,36.41
2023-05-03T12:13:38.616Z,37.46
2023-05-03T12:16:13.685Z,35.59
2023-05-03T12:18:58.908Z,37.00
2023-05-03T12:21:59.145Z,35.56
2023-05-03T12:24:34.744Z,36.37
2023-05-03T12:27:02.925Z,38.00
2023-05-03T12:29:34.824Z,36.46
2023-05-03T12:32:03.801Z,34.70
2023-05-03T12:34:34.870Z,36.82
2023-05-03T12:37:05.588Z,36.41
2023-05-03T12:39:33.957Z,37.22
2023-05-03T12:44:35.124Z,36.96
2023-05-03T12:47:02.532Z,36.47
2023-05-03T12:49:29.633Z,35.97
2023-05-03T12:52:18.505Z,35.70
2023-05-03T12:54:48.786Z,37.81
2023-05-03T12:57:22.092Z,37.21
2023-05-03T12:59:55.656Z,33.56
2023-05-03T13:05:00.412Z,34.83
2023-05-03T13:07:29.660Z,34.54
2023-05-03T13:12:28.120Z,34.66
2023-05-03T13:14:57.964Z,34.10
2023-05-03T13:17:25.169Z,34.38
2023-05-03T13:19:53.272Z,32.46
2023-05-03T13:22:19.888Z,34.05
2023-05-03T13:24:48.137Z,32.92
2023-05-03T13:27:15.990Z,33.21
2023-05-03T13:29:42.688Z,32.46
2023-05-03T13:32:09.656Z,31.56
2023-05-03T13:34:37.021Z,31.01
2023-05-03T13:37:04.770Z,31.19
2023-05-03T13:39:32.083Z,33.70
2023-05-03T13:41:59.041Z,33.87
2023-05-03T13:44:26.275Z,37.38
2023-05-03T13:46:53.647Z,33.62
2023-05-03T13:49:20.848Z,32.81
2023-05-03T13:51:47.751Z,31.49
2023-05-03T13:54:14.463Z,32.91
2023-05-03T13:56:42.904Z,32.24
2023-05-03T13:59:12.452Z,33.46
2023-05-03T14:01:39.585Z,34.07
2023-05-03T14:04:06.703Z,33.46
2023-05-03T14:06:33.974Z,34.80
2023-05-03T14:09:02.016Z,32.95
2023-05-03T14:11:30.468Z,33.39
2023-05-03T14:13:58.567Z,33.38
2023-05-03T14:18:57.204Z,34.06
2023-05-03T14:21:23.885Z,32.78
2023-05-03T14:23:51.105Z,33.19
2023-05-03T14:26:19.383Z,32.63
2023-05-03T14:28:46.292Z,33.20
2023-05-03T14:31:13.376Z,32.77
2023-05-03T14:33:40.100Z,32.19
2023-05-03T14:36:08.562Z,33.06
2023-05-03T14:38:35.900Z,35.11
2023-05-03T14:41:02.820Z,33.58
2023-05-03T14:43:29.538Z,34.04
2023-05-03T14:45:56.168Z,33.42
2023-05-03T14:48:23.469Z,35.47
2023-05-03T14:50:51.770Z,34.82
2023-05-03T14:53:18.685Z,34.56
2023-05-03T14:55:46.101Z,34.19
2023-05-03T14:58:13.450Z,34.70
2023-05-03T15:00:41.501Z,34.92
2023-05-03T15:03:12.288Z,34.79
2023-05-03T15:05:46.574Z,36.22
2023-05-03T15:08:19.436Z,36.60
2023-05-03T15:10:47.773Z,36.44
2023-05-03T15:13:16.293Z,36.32
2023-05-03T15:15:44.257Z,37.89
2023-05-03T15:18:11.442Z,36.74
2023-05-03T15:20:38.690Z,38.04
2023-05-03T15:23:05.919Z,37.38
2023-05-03T15:25:32.778Z,37.40
2023-05-03T15:28:03.705Z,36.78
2023-05-03T15:30:31.318Z,36.50
2023-05-03T15:32:58.103Z,35.67
2023-05-03T15:35:24.810Z,36.41
2023-05-03T15:37:51.550Z,36.09
2023-05-03T15:40:18.711Z,37.25
2023-05-03T15:42:45.465Z,38.22
2023-05-03T15:45:13.197Z,37.50
2023-05-03T15:47:40.031Z,36.35
2023-05-03T15:50:13.570Z,37.18
2023-05-03T15:52:40.438Z,37.92
2023-05-03T15:55:09.069Z,37.85
2023-05-03T15:57:35.771Z,38.69
2023-05-03T16:00:03.292Z,39.10
2023-05-03T16:02:30.727Z,37.20
2023-05-03T16:04:57.469Z,37.75
2023-05-03T16:07:24.145Z,37.95
2023-05-03T16:09:51.058Z,38.76
2023-05-03T16:12:17.667Z,39.79
2023-05-03T16:14:44.308Z,40.51
2023-05-03T16:17:11.125Z,39.94
2023-05-03T16:19:37.822Z,39.66
2023-05-03T16:22:05.216Z,39.96
2023-05-03T16:24:33.423Z,39.62
2023-05-03T16:27:01.863Z,39.14
2023-05-03T16:29:29.888Z,39.60
2023-05-03T16:31:56.642Z,38.62
2023-05-03T16:34:23.395Z,38.61
2023-05-03T16:36:50.042Z,39.47
2023-05-03T16:39:16.776Z,39.95
2023-05-03T16:41:43.653Z,40.21
2023-05-03T16:44:10.252Z,40.68
2023-05-03T16:46:40.969Z,41.31
2023-05-03T16:49:07.632Z,42.20
2023-05-03T16:51:34.540Z,41.97
2023-05-03T16:54:03.892Z,40.35
2023-05-03T16:56:31.425Z,40.82
2023-05-03T16:58:59.346Z,41.35
2023-05-03T17:01:26.434Z,41.24
2023-05-03T17:03:53.456Z,41.64
2023-05-03T17:06:20.549Z,41.66
2023-05-03T17:08:47.201Z,41.96
2023-05-03T17:11:14.768Z,41.68
2023-05-03T17:13:41.841Z,41.68
2023-05-03T17:16:15.216Z,42.48
2023-05-03T17:18:42.715Z,42.35
2023-05-03T17:21:10.023Z,42.87
2023-05-03T17:23:38.510Z,43.32
2023-05-03T17:26:08.435Z,43.75
2023-05-03T17:28:36.059Z,44.21
2023-05-03T17:31:03.563Z,44.46
2023-05-03T17:33:30.248Z,44.51
2023-05-03T17:35:57.012Z,44.46
2023-05-03T17:38:23.865Z,45.16
2023-05-03T17:40:50.830Z,45.24
2023-05-03T17:43:17.989Z,45.70
2023-05-03T17:45:47.413Z,45.83
2023-05-03T17:48:14.472Z,46.49
2023-05-03T17:50:43.232Z,46.69
2023-05-03T17:53:09.996Z,47.22
2023-05-03T17:55:38.194Z,47.24
2023-05-03T17:58:06.529Z,47.72
2023-05-03T18:00:34.019Z,47.75
2023-05-03T18:03:01.283Z,47.75
2023-05-03T18:05:28.294Z,48.37
2023-05-03T18:07:55.033Z,48.52
2023-05-03T18:10:22.371Z,49.26
2023-05-03T18:12:49.179Z,49.41
2023-05-03T18:15:16.255Z,49.81
2023-05-03T18:17:43.500Z,49.88
2023-05-03T18:20:11.026Z,50.20
2023-05-03T18:22:37.806Z,49.95
2023-05-03T18:25:07.437Z,50.21
2023-05-03T18:27:37.578Z,50.33
2023-05-03T18:30:06.871Z,50.27
2023-05-03T18:32:34.720Z,50.32
2023-05-03T18:35:03.634Z,50.74
2023-05-03T18:37:30.312Z,51.21
2023-05-03T18:39:56.936Z,51.27
2023-05-03T18:42:23.567Z,51.79
2023-05-03T18:44:50.336Z,51.69
2023-05-03T18:47:20.897Z,52.45
2023-05-03T18:49:51.708Z,52.25
2023-05-03T18:52:22.311Z,52.55
2023-05-03T18:54:52.421Z,52.72
2023-05-03T18:57:19.181Z,53.15
2023-05-03T18:59:59.564Z,52.98
2023-05-03T19:02:30.716Z,53.47
2023-05-03T19:04:58.198Z,53.88
2023-05-03T19:07:25.110Z,54.00
2023-05-03T19:09:56.011Z,53.40
2023-05-03T19:12:23.044Z,54.53
2023-05-03T19:14:49.935Z,54.22
2023-05-03T19:17:16.854Z,54.32
2023-05-03T19:19:43.548Z,54.48
2023-05-03T19:22:10.421Z,54.67
2023-05-03T19:24:37.087Z,54.42
2023-05-03T19:27:04.825Z,55.27
2023-05-03T19:29:31.709Z,55.46
2023-05-03T19:31:58.391Z,55.70
2023-05-03T19:34:25.148Z,56.19
2023-05-03T19:36:51.780Z,56.59
2023-05-03T19:39:18.380Z,56.05
2023-05-03T19:41:45.166Z,56.07
2023-05-03T19:44:12.319Z,56.31
2023-05-03T19:46:39.263Z,56.83
2023-05-03T19:49:06.318Z,56.99
2023-05-03T19:51:33.199Z,57.26
2023-05-03T19:54:03.293Z,57.47
2023-05-03T19:56:30.007Z,57.95
2023-05-03T19:58:56.963Z,57.56
2023-05-03T20:01:23.869Z,57.54
2023-05-03T20:03:53.515Z,58.47
2023-05-03T20:06:20.974Z,58.67
2023-05-03T20:08:47.696Z,57.79
2023-05-03T20:11:14.250Z,57.94
2023-05-03T20:13:40.860Z,58.41
2023-05-03T20:16:08.403Z,59.08
2023-05-03T20:18:35.279Z,59.69
2023-05-03T20:21:03.355Z,59.69
2023-05-03T20:23:29.999Z,60.35
2023-05-03T20:25:57.090Z,60.60
2023-05-03T20:28:23.877Z,60.68
2023-05-03T20:30:50.673Z,60.89
2023-05-03T20:33:17.353Z,60.14
2023-05-03T20:35:44.685Z,59.82
2023-05-03T20:38:11.485Z,60.02
2023-05-03T20:40:38.424Z,59.52
2023-05-03T20:43:05.061Z,59.60
2023-05-03T20:45:31.960Z,59.90
2023-05-03T20:47:58.763Z,60.59
2023-05-03T20:50:25.474Z,61.45
2023-05-03T20:52:52.081Z,60.87
2023-05-03T20:55:21.576Z,61.19
2023-05-03T20:57:48.045Z,62.28
2023-05-03T21:00:15.991Z,63.18
2023-05-03T21:02:43.237Z,64.98
2023-05-03T21:05:11.398Z,64.64
2023-05-03T21:07:38.680Z,65.16
2023-05-03T21:10:07.321Z,64.19
2023-05-03T21:12:34.802Z,63.81
2023-05-03T21:15:01.630Z,63.82
2023-05-03T21:17:28.268Z,63.79
2023-05-03T21:19:54.921Z,64.05
2023-05-03T21:22:21.831Z,64.08
2023-05-03T21:24:48.543Z,64.51
2023-05-03T21:27:15.199Z,64.66
2023-05-03T21:29:41.780Z,65.34
2023-05-03T21:32:08.505Z,65.48
2023-05-03T21:34:35.218Z,66.20
2023-05-03T21:37:01.861Z,66.10
2023-05-03T21:39:28.732Z,65.20
2023-05-03T21:41:55.461Z,65.65
2023-05-03T21:44:22.079Z,65.61
2023-05-03T21:46:48.726Z,65.68
2023-05-03T21:49:15.900Z,66.37
2023-05-03T21:51:42.483Z,66.42
2023-05-03T21:54:09.103Z,66.22
2023-05-03T21:56:35.742Z,66.92
2023-05-03T21:59:02.336Z,67.18
2023-05-03T22:01:29.854Z,68.07
2023-05-03T22:03:56.665Z,67.41
2023-05-03T22:06:23.529Z,67.44
2023-05-03T22:08:50.121Z,67.53
2023-05-03T22:11:16.790Z,67.92
2023-05-03T22:13:58.770Z,67.99
2023-05-03T22:16:30.162Z,67.85
2023-05-03T22:18:57.002Z,68.07
2023-05-03T22:21:23.713Z,68.68
2023-05-03T22:23:50.299Z,69.65
2023-05-03T22:26:16.997Z,70.15
2023-05-03T22:28:44.286Z,69.41
2023-05-03T22:31:11.049Z,68.89
2023-05-03T22:33:37.694Z,69.09
2023-05-03T22:36:04.448Z,69.44
2023-05-03T22:38:31.374Z,70.10
2023-05-03T22:40:58.048Z,70.63
2023-05-03T22:43:24.661Z,70.27
2023-05-03T22:45:51.302Z,70.90
2023-05-03T22:48:17.923Z,71.96
2023-05-03T22:50:44.574Z,71.22
2023-05-03T22:53:11.256Z,70.67
2023-05-03T22:55:37.975Z,71.72
2023-05-03T22:58:04.568Z,72.11
2023-05-03T23:00:31.500Z,71.99
2023-05-03T23:02:58.815Z,71.52
2023-05-03T23:05:25.789Z,71.94
2023-05-03T23:07:52.661Z,71.87
2023-05-03T23:10:19.338Z,71.61
2023-05-03T23:12:46.113Z,72.42
2023-05-03T23:15:12.888Z,72.75
2023-05-03T23:17:40.029Z,72.35
2023-05-03T23:20:07.638Z,72.39
2023-05-03T23:22:34.353Z,72.32
2023-05-03T23:25:01.018Z,72.90
2023-05-03T23:27:27.645Z,72.73
2023-05-03T23:29:54.811Z,73.63
2023-05-03T23:32:22.050Z,73.45
2023-05-03T23:34:49.297Z,73.26
2023-05-03T23:37:15.915Z,73.69
2023-05-03T23:39:44.353Z,73.18
2023-05-03T23:42:12.225Z,73.23
2023-05-03T23:44:53.685Z,74.38
2023-05-03T23:47:21.122Z,73.92
2023-05-03T23:49:47.754Z,75.15
2023-05-03T23:52:16.898Z,75.22
2023-05-03T23:54:43.595Z,75.16
2023-05-03T23:57:10.276Z,75.22
2023-05-03T23:59:37.127Z,75.60
